Time;durP1;ratioP1;P1;durP2;ratioP2;P2;SDS_P1;SDS_P2;PMS_P1;PMS_P2;Temp;Humidity;BMP_temperature;BMP_pressure;BME280_temperature;BME280_humidity;BME280_pressure;Samples;Min_cycle;Max_cycle;Signal;HPM_P1;HPM_P2
2022/01/30 00:02:01;;;;;;;;;;;;;;;-142.75;100.00;78889.81;5031557;28;20015;-67
2022/01/30 00:04:27;;;;;;;;;;;;;;;-142.75;100.00;78887.84;5049629;28;19913;-67
2022/01/30 00:06:52;;;;;;;;;;;;;;;-142.75;100.00;78901.66;5049787;28;20370;-68
2022/01/30 00:09:20;;;;;;;;;;;;;;;-142.75;100.00;78889.81;5049409;28;19916;-68
2022/01/30 00:11:50;;;;;;;;;;;;;;;-142.75;100.00;78891.78;5049479;28;19912;-68
2022/01/30 00:14:18;;;;;;;;;;;;;;;-142.75;100.00;78897.72;5029128;28;19917;-67
2022/01/30 00:16:43;;;;;;;;;;;;;;;-142.75;100.00;78897.72;5028760;28;19917;-68
2022/01/30 00:19:22;;;;;;;;;;;;;;;-142.75;100.00;78909.53;5029163;28;20295;-68
2022/01/30 00:22:01;;;;;;;;;;;;;;;-142.75;100.00;78905.59;5030143;28;20378;-67
2022/01/30 00:24:42;;;;;;;;;;;;;;;-142.75;100.00;78901.66;5032567;28;20304;-67
2022/01/30 00:27:14;;;;;;;;;;;;;;;-142.75;100.00;78911.50;5034062;28;19963;-67
2022/01/30 00:29:40;;;;;;;;;;;;;;;-142.75;100.00;78921.34;5033813;28;19920;-67
2022/01/30 00:32:05;;;;;;;;;;;;;;;-142.75;100.00;78933.16;5015500;28;19913;-67
2022/01/30 00:34:30;;;;;;;;;;;;;;;-142.75;100.00;78935.13;5033394;28;19913;-67
2022/01/30 00:36:55;;;;;;;;;;;;;;;-142.75;100.00;78935.13;5044158;28;19924;-66
2022/01/30 00:39:20;;;;;;;;;;;;;;;-142.75;100.00;78944.97;5032111;28;19913;-67
2022/01/30 00:41:46;;;;;;;;;;;;;;;-142.75;100.00;78950.88;5032647;28;19943;-66
2022/01/30 00:44:11;;;;;;;;;;;;;;;-142.75;100.00;78948.91;5015913;28;20051;-67
2022/01/30 00:46:38;;;;;;;;;;;;;;;-142.75;100.00;78950.88;5034430;28;19913;-67
2022/01/30 00:49:03;;;;;;;;;;;;;;;-142.75;100.00;78960.72;5033825;28;20370;-66
2022/01/30 00:51:28;;;;;;;;;;;;;;;-142.75;100.00;78968.63;5033960;28;19924;-67
2022/01/30 00:53:53;;;;;;;;;;;;;;;-142.75;100.00;78968.63;5016062;28;19920;-68
2022/01/30 00:56:18;;;;;;;;;;;;;;;-142.75;100.00;78964.69;5016030;28;19912;-67
2022/01/30 00:58:44;;;;;;;;;;;;;;;-142.75;100.00;78966.66;5033722;28;19920;-68
2022/01/30 01:01:09;;;;;;;;;;;;;;;-142.75;100.00;78970.59;5014721;28;20329;-68
2022/01/30 01:03:34;;;;;;;;;;;;;;;-142.75;100.00;78964.69;5056622;22;20734;-65
2022/01/30 01:06:03;;;;;;;;;;;;;;;-142.75;100.00;78968.63;5014490;28;19921;-67
2022/01/30 01:08:47;;;;;;;;;;;;;;;-142.75;100.00;78974.53;5014869;28;20405;-68
2022/01/30 01:24:07;;;;;;;;;;;;;;;-142.75;100.00;78980.44;5033291;28;19921;-67
2022/01/30 01:26:32;;;;;;;;;;;;;;;-142.75;100.00;78992.25;5032865;28;19912;-65
2022/01/30 01:28:58;;;;;;;;;;;;;;;-142.75;100.00;78992.25;5015162;28;19990;-67
2022/01/30 01:31:23;;;;;;;;;;;;;;;-142.75;100.00;78990.28;5033357;28;19913;-66
2022/01/30 01:36:14;;;;;;;;;;;;;;;-142.75;100.00;79000.13;5033284;28;19920;-67
2022/01/30 01:38:40;;;;;;;;;;;;;;;-142.75;100.00;79000.13;5032790;28;19921;-68
2022/01/30 01:41:05;;;;;;;;;;;;;;;-142.75;100.00;78994.22;5032894;28;19916;-67
2022/01/30 01:43:31;;;;;;;;;;;;;;;-142.75;100.00;78998.16;5033045;28;19917;-67
2022/01/30 01:45:58;;;;;;;;;;;;;;;-142.75;100.00;78994.22;5032988;28;19966;-66
2022/01/30 01:48:23;;;;;;;;;;;;;;;-142.75;100.00;79009.97;5032656;28;19912;-66
2022/01/30 01:50:55;;;;;;;;;;;;;;;-142.75;100.00;79013.91;5015061;28;20272;-66
2022/01/30 01:53:21;;;;;;;;;;;;;;;-142.75;100.00;79009.97;5014913;28;19959;-67
2022/01/30 01:55:47;;;;;;;;;;;;;;;-142.75;100.00;79008.00;5032698;28;19917;-67
2022/01/30 01:58:12;;;;;;;;;;;;;;;-142.75;100.00;79017.84;5032327;28;19970;-66
2022/01/30 02:00:37;;;;;;;;;;;;;;;-142.75;100.00;79015.88;5032883;28;19920;-66
2022/01/30 02:03:03;;;;;;;;;;;;;;;-142.75;100.00;79015.88;5032727;28;19986;-67
2022/01/30 02:05:32;;;;;;;;;;;;;;;-142.75;100.00;79009.97;5031796;28;19913;-67
2022/01/30 02:08:24;;;;;;;;;;;;;;;-142.75;100.00;79027.69;5032223;28;20016;-66
2022/01/30 02:10:53;;;;;;;;;;;;;;;-142.75;100.00;79023.75;5032278;28;19921;-67
2022/01/30 02:24:18;;;;;;;;;;;;;;;-142.75;100.00;79015.88;5032303;28;19920;-66
2022/01/30 02:26:44;;;;;;;;;;;;;;;-142.75;100.00;79009.97;5032309;28;19913;-67
2022/01/30 02:29:10;;;;;;;;;;;;;;;-142.75;100.00;79000.13;5031931;28;19917;-67
2022/01/30 02:31:38;;;;;;;;;;;;;;;-142.75;100.00;79006.03;5014400;28;19928;-68
2022/01/30 02:34:03;;;;;;;;;;;;;;;-142.75;100.00;78998.16;5032091;28;19975;-66
2022/01/30 02:36:29;;;;;;;;;;;;;;;-142.75;100.00;78992.25;5032014;28;20578;-67
2022/01/30 02:38:57;;;;;;;;;;;;;;;-142.75;100.00;78998.16;5031806;28;19935;-67
2022/01/30 02:41:22;;;;;;;;;;;;;;;-142.75;100.00;79004.06;5031987;28;19967;-66
2022/01/30 02:44:03;;;;;;;;;;;;;;;-142.75;100.00;79004.06;5031755;28;20413;-66
2022/01/30 02:46:33;;;;;;;;;;;;;;;-142.75;100.00;79006.03;5013947;28;19913;-66
2022/01/30 02:49:11;;;;;;;;;;;;;;;-142.75;100.00;79013.91;5031597;28;19913;-66
2022/01/30 02:51:46;;;;;;;;;;;;;;;-142.75;100.00;79011.94;5031839;28;20431;-67
2022/01/30 02:54:11;;;;;;;;;;;;;;;-142.75;100.00;79015.88;5031581;28;19947;-68
2022/01/30 02:56:37;;;;;;;;;;;;;;;-142.75;100.00;79011.94;5031650;28;19917;-67
2022/01/30 02:59:02;;;;;;;;;;;;;;;-142.75;100.00;79013.91;5013593;28;20294;-67
2022/01/30 03:01:27;;;;;;;;;;;;;;;-142.75;100.00;79013.91;5031658;28;19913;-68
2022/01/30 03:03:53;;;;;;;;;;;;;;;-142.75;100.00;79025.72;5031382;28;19917;-66
2022/01/30 03:06:18;;;;;;;;;;;;;;;-142.75;100.00;79031.66;5031645;28;19991;-66
2022/01/30 03:08:43;;;;;;;;;;;;;;;-142.75;100.00;79031.66;5031308;28;19921;-66
2022/01/30 03:11:08;;;;;;;;;;;;;;;-142.75;100.00;79043.47;5013738;28;19913;-67
2022/01/30 03:13:33;;;;;;;;;;;;;;;-142.75;100.00;79065.13;5031486;28;19913;-66
2022/01/30 03:16:03;;;;;;;;;;;;;;;-142.75;100.00;79053.31;5031323;28;19913;-67
2022/01/30 03:18:28;;;;;;;;;;;;;;;-142.75;100.00;79041.50;5031021;28;20020;-67
2022/01/30 03:20:53;;;;;;;;;;;;;;;-142.75;100.00;79033.63;5013677;28;19944;-67
2022/01/30 03:23:19;;;;;;;;;;;;;;;-142.75;100.00;79043.47;5031364;28;19971;-66
2022/01/30 03:25:44;;;;;;;;;;;;;;;-142.75;100.00;79051.34;5031151;28;19913;-66
2022/01/30 03:28:09;;;;;;;;;;;;;;;-142.75;100.00;79055.28;5031069;28;20137;-66
2022/01/30 03:30:36;;;;;;;;;;;;;;;-142.75;100.00;79055.28;5031225;28;19937;-67
2022/01/30 03:33:01;;;;;;;;;;;;;;;-142.75;100.00;79063.16;5031270;28;19919;-67
2022/01/30 03:35:26;;;;;;;;;;;;;;;-142.75;100.00;79061.19;5030988;28;19913;-67
2022/01/30 03:37:52;;;;;;;;;;;;;;;-142.75;100.00;79065.13;5030911;28;19917;-64
2022/01/30 03:40:17;;;;;;;;;;;;;;;-142.75;100.00;79057.25;5031195;28;20027;-66
2022/01/30 03:42:42;;;;;;;;;;;;;;;-142.75;100.00;79063.16;5013429;28;19913;-67
2022/01/30 03:45:08;;;;;;;;;;;;;;;-142.75;100.00;79063.16;5031113;28;20479;-67
2022/01/30 03:47:33;;;;;;;;;;;;;;;-142.75;100.00;79067.09;5035377;28;19912;-67
2022/01/30 03:49:58;;;;;;;;;;;;;;;-142.75;100.00;79065.13;5050700;28;19912;-66
2022/01/30 03:52:24;;;;;;;;;;;;;;;-142.75;100.00;79055.28;5050927;28;19916;-67
2022/01/30 03:54:49;;;;;;;;;;;;;;;-142.75;100.00;79051.34;5050808;28;19920;-67
2022/01/30 03:57:14;;;;;;;;;;;;;;;-142.75;100.00;79055.28;5034331;28;20011;-67
2022/01/30 03:59:39;;;;;;;;;;;;;;;-142.75;100.00;79053.31;5054619;28;20000;-67
2022/01/30 04:02:04;;;;;;;;;;;;;;;-142.75;100.00;79055.28;5054881;28;19917;-66
2022/01/30 04:04:32;;;;;;;;;;;;;;;-142.75;100.00;79049.38;5054574;28;19919;-67
2022/01/30 04:06:58;;;;;;;;;;;;;;;-142.75;100.00;79059.22;5054836;28;20396;-66
2022/01/30 04:09:23;;;;;;;;;;;;;;;-142.75;100.00;79059.22;5054424;28;20007;-66
2022/01/30 04:11:49;;;;;;;;;;;;;;;-142.75;100.00;79071.03;5036688;28;19913;-67
2022/01/30 04:14:14;;;;;;;;;;;;;;;-142.75;100.00;79074.97;5036709;28;19913;-66
2022/01/30 04:16:40;;;;;;;;;;;;;;;-142.75;100.00;79065.13;5054469;28;19916;-66
2022/01/30 04:19:05;;;;;;;;;;;;;;;-142.75;100.00;79063.16;5054340;28;19921;-67
2022/01/30 04:21:31;;;;;;;;;;;;;;;-142.75;100.00;79067.09;5036620;28;20011;-66
2022/01/30 04:23:56;;;;;;;;;;;;;;;-142.75;100.00;79059.22;5036538;28;19919;-66
2022/01/30 04:26:21;;;;;;;;;;;;;;;-142.75;100.00;79053.31;5036428;28;19919;-67
2022/01/30 04:28:47;;;;;;;;;;;;;;;-142.75;100.00;79055.28;5054170;28;19939;-66
2022/01/30 04:31:13;;;;;;;;;;;;;;;-142.75;100.00;79053.31;5054295;28;19912;-67
2022/01/30 04:33:38;;;;;;;;;;;;;;;-142.75;100.00;79065.13;5054237;28;19916;-67
2022/01/30 04:36:07;;;;;;;;;;;;;;;-142.75;100.00;79063.16;5036463;28;20366;-66
2022/01/30 04:38:44;;;;;;;;;;;;;;;-142.75;100.00;79071.03;5053733;28;19917;-68
2022/01/30 05:03:25;;;;;;;;;;;;;;;-142.75;100.00;79136.03;5053922;28;19913;-66
2022/01/30 05:08:19;;;;;;;;;;;;;;;-142.75;100.00;79153.75;5053230;28;19913;-67
2022/01/30 05:10:44;;;;;;;;;;;;;;;-142.75;100.00;79157.72;5053617;28;20399;-67
2022/01/30 05:13:14;;;;;;;;;;;;;;;-142.75;100.00;79161.66;5053691;28;20011;-66
2022/01/30 05:15:39;;;;;;;;;;;;;;;-142.75;100.00;79165.59;5053449;28;19913;-66
2022/01/30 05:18:05;;;;;;;;;;;;;;;-142.75;100.00;79165.59;5035216;28;19924;-67
2022/01/30 05:20:30;;;;;;;;;;;;;;;-142.75;100.00;79179.38;5053452;28;19912;-67
2022/01/30 05:22:56;;;;;;;;;;;;;;;-142.75;100.00;79171.50;5053349;28;19917;-67
2022/01/30 05:25:22;;;;;;;;;;;;;;;-142.75;100.00;79181.34;5053551;28;20301;-67
2022/01/30 05:27:47;;;;;;;;;;;;;;;-142.75;100.00;79193.16;5037892;28;19917;-64
2022/01/30 05:30:12;;;;;;;;;;;;;;;-142.75;100.00;79201.03;5053851;28;19919;-66
2022/01/30 05:32:37;;;;;;;;;;;;;;;-142.75;100.00;79197.09;5054415;28;19920;-66
2022/01/30 05:35:03;;;;;;;;;;;;;;;-142.75;100.00;79204.97;5053909;28;19935;-67
2022/01/30 05:37:28;;;;;;;;;;;;;;;-142.75;100.00;79204.97;5036081;28;19960;-67
2022/01/30 05:39:54;;;;;;;;;;;;;;;-142.75;100.00;79204.97;5053516;28;20313;-67
2022/01/30 05:42:19;;;;;;;;;;;;;;;-142.75;100.00;79206.94;5054169;28;19919;-67
2022/01/30 05:44:54;;;;;;;;;;;;;;;-142.75;100.00;79199.06;5053166;28;19912;-66
2022/01/30 05:47:31;;;;;;;;;;;;;;;-142.75;100.00;79195.13;5035210;28;19917;-66
2022/01/30 05:49:56;;;;;;;;;;;;;;;-142.75;100.00;79208.91;5052641;28;19920;-67
2022/01/30 05:52:22;;;;;;;;;;;;;;;-142.75;100.00;79216.78;5052823;28;19912;-67
2022/01/30 05:54:47;;;;;;;;;;;;;;;-142.75;100.00;79220.75;5052796;28;20274;-66
2022/01/30 05:57:12;;;;;;;;;;;;;;;-142.75;100.00;79224.69;5034760;28;19921;-67
2022/01/30 05:59:37;;;;;;;;;;;;;;;-142.75;100.00;79234.53;5052358;28;19913;-67
2022/01/30 06:02:03;;;;;;;;;;;;;;;-142.75;100.00;79234.53;5052681;28;19912;-66
2022/01/30 06:04:28;;;;;;;;;;;;;;;-142.75;100.00;79236.50;5034802;28;20293;-66
2022/01/30 06:06:55;;;;;;;;;;;;;;;-142.75;100.00;79240.44;5052545;28;19920;-66
2022/01/30 06:09:21;;;;;;;;;;;;;;;-142.75;100.00;79244.38;5052349;28;19919;-67
2022/01/30 06:11:50;;;;;;;;;;;;;;;-142.75;100.00;79236.50;5034724;28;19920;-66
2022/01/30 06:14:19;;;;;;;;;;;;;;;-142.75;100.00;79236.50;5034487;28;19935;-67
2022/01/30 06:16:44;;;;;;;;;;;;;;;-142.75;100.00;79228.63;5052371;28;20431;-66
2022/01/30 06:19:09;;;;;;;;;;;;;;;-142.75;100.00;79228.63;5051579;28;20012;-67
2022/01/30 06:21:34;;;;;;;;;;;;;;;-142.75;100.00;79228.63;5051930;28;19916;-66
2022/01/30 06:24:00;;;;;;;;;;;;;;;-142.75;100.00;79222.72;5052111;28;20436;-67
2022/01/30 06:26:25;;;;;;;;;;;;;;;-142.75;100.00;79222.72;5052129;28;19967;-66
2022/01/30 06:28:50;;;;;;;;;;;;;;;-142.75;100.00;79238.47;5044018;28;20321;-66
2022/01/30 06:31:15;;;;;;;;;;;;;;;-142.75;100.00;79240.44;5032093;28;20366;-67
2022/01/30 06:33:41;;;;;;;;;;;;;;;-142.75;100.00;79236.50;5032104;28;19913;-66
2022/01/30 06:36:06;;;;;;;;;;;;;;;-142.75;100.00;79244.38;5032122;28;19913;-66
2022/01/30 06:38:31;;;;;;;;;;;;;;;-142.75;100.00;79242.41;5031687;28;20436;-66
2022/01/30 06:40:56;;;;;;;;;;;;;;;-142.75;100.00;79246.34;5032063;28;19912;-66
2022/01/30 06:43:22;;;;;;;;;;;;;;;-142.75;100.00;79252.25;5031757;28;20009;-65
2022/01/30 06:45:48;;;;;;;;;;;;;;;-142.75;100.00;79252.25;5032689;28;19913;-67
2022/01/30 06:48:15;;;;;;;;;;;;;;;-142.75;100.00;79260.13;5051421;28;19921;-66
2022/01/30 06:50:41;;;;;;;;;;;;;;;-142.75;100.00;79268.00;5051809;28;19955;-66
2022/01/30 06:53:06;;;;;;;;;;;;;;;-142.75;100.00;79269.97;5033765;28;19943;-66
2022/01/30 06:55:31;;;;;;;;;;;;;;;-142.75;100.00;79277.88;5051659;28;19912;-66
2022/01/30 06:57:56;;;;;;;;;;;;;;;-142.75;100.00;79279.84;5033360;28;19928;-65
2022/01/30 07:00:21;;;;;;;;;;;;;;;-142.75;100.00;79283.78;5051415;28;19912;-65
2022/01/30 07:02:47;;;;;;;;;;;;;;;-142.75;100.00;79281.81;5051526;28;19912;-66
2022/01/30 07:05:12;;;;;;;;;;;;;;;-142.75;100.00;79287.72;5067467;22;19921;-67
2022/01/30 07:07:37;;;;;;;;;;;;;;;-142.75;100.00;79293.63;5035284;28;20342;-67
2022/01/30 07:10:05;;;;;;;;;;;;;;;-142.75;100.00;79311.34;5022522;28;20019;-67
2022/01/30 07:12:30;;;;;;;;;;;;;;;-142.75;100.00;79307.41;5052591;28;19966;-67
2022/01/30 07:14:55;;;;;;;;;;;;;;;-142.75;100.00;79309.38;5033856;28;19916;-68
2022/01/30 07:17:20;;;;;;;;;;;;;;;-142.75;100.00;79317.25;5032874;28;19917;-67
2022/01/30 07:19:45;;;;;;;;;;;;;;;-142.75;100.00;79321.19;5033577;28;20298;-67
2022/01/30 07:22:11;;;;;;;;;;;;;;;-142.75;100.00;79325.13;5014369;28;19951;-67
2022/01/30 07:24:36;;;;;;;;;;;;;;;-142.75;100.00;79323.16;5032982;28;20012;-67
2022/01/30 07:27:01;;;;;;;;;;;;;;;-142.75;100.00;79327.09;5032020;28;19913;-67
2022/01/30 07:29:26;;;;;;;;;;;;;;;-142.75;100.00;79338.94;5013350;28;19939;-67
2022/01/30 07:31:52;;;;;;;;;;;;;;;-142.75;100.00;79346.81;5031367;28;19920;-67
2022/01/30 07:34:19;;;;;;;;;;;;;;;-142.75;100.00;79350.75;5013382;28;19962;-67
2022/01/30 07:36:46;;;;;;;;;;;;;;;-142.75;100.00;79340.91;5031063;28;19924;-67
2022/01/30 07:39:12;;;;;;;;;;;;;;;-142.75;100.00;79336.94;5043952;28;20382;-67
2022/01/30 07:41:37;;;;;;;;;;;;;;;-142.75;100.00;79329.06;5051229;28;20046;-68
2022/01/30 07:44:04;;;;;;;;;;;;;;;-142.75;100.00;79315.28;5051056;28;20011;-68
2022/01/30 07:46:29;;;;;;;;;;;;;;;-142.75;100.00;79315.28;5050914;28;19921;-67
2022/01/30 07:48:54;;;;;;;;;;;;;;;-142.75;100.00;79307.41;5047376;28;19917;-68
2022/01/30 07:51:20;;;;;;;;;;;;;;;-142.75;100.00;79311.34;5013253;28;19913;-67
2022/01/30 07:53:45;;;;;;;;;;;;;;;-142.75;100.00;79311.34;5031200;28;19913;-67
2022/01/30 07:56:10;;;;;;;;;;;;;;;-142.75;100.00;79309.38;5031011;28;19913;-67
2022/01/30 07:58:35;;;;;;;;;;;;;;;-142.75;100.00;79307.41;5030573;28;20016;-68
2022/01/30 08:01:00;;;;;;;;;;;;;;;-142.75;100.00;79307.41;5030857;28;19999;-67
2022/01/30 08:03:26;;;;;;;;;;;;;;;-142.75;100.00;79293.63;5030973;28;19913;-68
2022/01/30 08:05:51;;;;;;;;;;;;;;;-142.75;100.00;79287.72;5029954;28;19956;-68
2022/01/30 08:08:16;;;;;;;;;;;;;;;-142.75;100.00;79277.88;5030641;28;19917;-68
2022/01/30 08:10:41;;;;;;;;;;;;;;;-142.75;100.00;79254.22;5030822;28;20000;-68
2022/01/30 08:13:07;;;;;;;;;;;;;;;-142.75;100.00;79238.47;5030735;28;19959;-67
2022/01/30 08:15:32;;;;;;;;;;;;;;;-142.75;100.00;79212.84;5030609;28;21281;-67
2022/01/30 08:17:57;;;;;;;;;;;;;;;-142.75;100.00;79189.22;5030432;28;19917;-68
2022/01/30 08:20:25;;;;;;;;;;;;;;;-142.75;100.00;79177.41;5030694;28;19917;-67
2022/01/30 08:22:52;;;;;;;;;;;;;;;-142.75;100.00;79173.47;5030844;28;19971;-68
2022/01/30 08:25:18;;;;;;;;;;;;;;;-142.75;100.00;79157.72;5030657;28;19927;-67
2022/01/30 08:27:43;;;;;;;;;;;;;;;-142.75;100.00;79153.75;5030601;28;20485;-68
2022/01/30 08:30:08;;;;;;;;;;;;;;;-142.75;100.00;79143.91;5030410;28;20012;-68
2022/01/30 08:32:41;;;;;;;;;;;;;;;-142.75;100.00;79134.06;5030565;28;20600;-68
2022/01/30 08:35:07;;;;;;;;;;;;;;;-142.75;100.00;79155.72;5030595;28;19913;-68
2022/01/30 08:37:33;;;;;;;;;;;;;;;-142.75;100.00;79143.91;5030609;28;19924;-68
2022/01/30 08:39:58;;;;;;;;;;;;;;;-142.75;100.00;79110.44;5030345;28;19912;-68
2022/01/30 08:42:23;;;;;;;;;;;;;;;-142.75;100.00;79090.72;5030576;28;20321;-68
2022/01/30 08:44:48;;;;;;;;;;;;;;;-142.75;100.00;79084.81;5033959;28;20452;-68
2022/01/30 08:47:13;;;;;;;;;;;;;;;-142.75;100.00;79076.94;5034169;28;19923;-68
2022/01/30 08:49:38;;;;;;;;;;;;;;;-142.75;100.00;79049.38;5033731;28;20361;-68
2022/01/30 08:52:04;;;;;;;;;;;;;;;-142.75;100.00;79015.88;5034074;28;19931;-68
2022/01/30 08:54:29;;;;;;;;;;;;;;;-142.75;100.00;78972.56;5034014;28;19920;-68
2022/01/30 08:56:54;;;;;;;;;;;;;;;-142.75;100.00;78948.91;5035527;28;19917;-68
2022/01/30 08:59:19;;;;;;;;;;;;;;;-142.75;100.00;78931.19;5053580;28;19912;-68
2022/01/30 09:01:45;;;;;;;;;;;;;;;-142.75;100.00;78889.81;5035845;28;19913;-68
2022/01/30 09:04:11;;;;;;;;;;;;;;;-142.75;100.00;78905.59;5053495;28;19920;-68
2022/01/30 09:06:38;;;;;;;;;;;;;;;-142.75;100.00;78878.00;5053683;28;19921;-68
2022/01/30 09:09:03;;;;;;;;;;;;;;;-142.75;100.00;78856.34;5053379;28;19948;-68
2022/01/30 09:11:28;;;;;;;;;;;;;;;-142.75;100.00;78870.13;5053526;28;19971;-68
2022/01/30 09:13:54;;;;;;;;;;;;;;;-142.75;100.00;78876.03;5053510;28;20382;-67
2022/01/30 09:16:19;;;;;;;;;;;;;;;-142.75;100.00;78893.78;5035944;28;20473;-68
2022/01/30 09:18:44;;;;;;;;;;;;;;;-142.75;100.00;78889.81;5053072;28;19946;-69
2022/01/30 09:21:09;;;;;;;;;;;;;;;-142.75;100.00;78885.88;5053356;28;19922;-68
2022/01/30 09:23:34;;;;;;;;;;;;;;;-142.75;100.00;78846.50;5053370;28;20366;-69
2022/01/30 09:25:59;;;;;;;;;;;;;;;-142.75;100.00;78816.94;5053132;28;19919;-68
2022/01/30 09:28:25;;;;;;;;;;;;;;;-142.75;100.00;78787.41;5053092;28;20285;-68
2022/01/30 09:30:50;;;;;;;;;;;;;;;-142.75;100.00;78753.94;5053217;28;19913;-67
2022/01/30 09:33:15;;;;;;;;;;;;;;;-142.75;100.00;78785.44;5053240;28;19955;-68
2022/01/30 09:35:40;;;;;;;;;;;;;;;-142.75;100.00;78773.63;5035245;28;19956;-69
2022/01/30 09:38:06;;;;;;;;;;;;;;;-142.75;100.00;78740.13;5034820;28;20309;-69
2022/01/30 09:40:31;;;;;;;;;;;;;;;-142.75;100.00;78783.47;5052979;28;20442;-69
2022/01/30 09:42:57;;;;;;;;;;;;;;;-142.75;100.00;78803.16;5035194;28;19948;-69
2022/01/30 09:45:23;;;;;;;;;;;;;;;-142.75;100.00;78799.22;5052959;28;19919;-69
2022/01/30 09:47:49;;;;;;;;;;;;;;;-142.75;100.00;78748.03;5052121;28;19913;-68
2022/01/30 09:50:17;;;;;;;;;;;;;;;-142.75;100.00;78765.75;5044501;28;20392;-70
2022/01/30 09:52:42;;;;;;;;;;;;;;;-142.75;100.00;78779.53;5032307;28;19920;-68
2022/01/30 09:55:08;;;;;;;;;;;;;;;-142.75;100.00;78822.88;5014049;28;19917;-68
2022/01/30 09:57:34;;;;;;;;;;;;;;;-142.75;100.00;78811.03;5032929;28;19939;-68
2022/01/30 09:59:59;;;;;;;;;;;;;;;-142.75;100.00;78751.97;5032655;28;19909;-68
2022/01/30 10:02:26;;;;;;;;;;;;;;;-142.75;100.00;78720.44;5032527;28;19920;-68
2022/01/30 10:04:51;;;;;;;;;;;;;;;-142.75;100.00;78716.50;5014767;28;20320;-69
2022/01/30 10:07:19;;;;;;;;;;;;;;;-142.75;100.00;78751.97;5032687;28;19909;-69
2022/01/30 10:09:47;;;;;;;;;;;;;;;-142.75;100.00;78742.09;5032410;28;19960;-68
2022/01/30 10:12:28;;;;;;;;;;;;;;;-142.75;100.00;78720.44;5031498;28;19909;-68
2022/01/30 10:15:02;;;;;;;;;;;;;;;-142.75;100.00;78740.13;5032477;28;19909;-68
2022/01/30 10:17:37;;;;;;;;;;;;;;;-142.75;100.00;78811.03;5032388;28;19929;-68
2022/01/30 10:20:12;;;;;;;;;;;;;;;-142.75;100.00;78832.72;5032126;28;19909;-68
2022/01/30 10:22:48;;;;;;;;;;;;;;;-142.75;100.00;78771.66;5032390;28;20048;-68
2022/01/30 10:25:17;;;;;;;;;;;;;;;-142.75;100.00;78722.41;5032271;28;20366;-68
2022/01/30 10:27:42;;;;;;;;;;;;;;;-142.75;100.00;78704.69;5032217;28;20000;-68
2022/01/30 10:30:08;;;;;;;;;;;;;;;-142.75;100.00;78685.00;5014247;28;20617;-68
2022/01/30 10:32:34;;;;;;;;;;;;;;;-142.75;100.00;78633.78;5032234;28;19909;-68
2022/01/30 10:35:05;;;;;;;;;;;;;;;-142.75;100.00;78574.69;5032125;28;20277;-68
2022/01/30 10:37:30;;;;;;;;;;;;;;;-142.75;100.00;78547.13;5032187;28;20301;-67
2022/01/30 10:39:58;;;;;;;;;;;;;;;-142.75;100.00;78627.88;5031823;28;20011;-67
2022/01/30 10:42:31;;;;;;;;;;;;;;;-142.75;100.00;78692.88;5014179;28;20363;-67
2022/01/30 10:44:56;;;;;;;;;;;;;;;-142.75;100.00;78728.31;5031935;28;19932;-67
2022/01/30 10:47:21;;;;;;;;;;;;;;;-142.75;100.00;78763.78;5031510;28;21171;-67
2022/01/30 10:49:47;;;;;;;;;;;;;;;-142.75;100.00;78783.47;5031618;28;19913;-67
2022/01/30 10:52:13;;;;;;;;;;;;;;;-142.75;100.00;78777.56;5031970;28;20370;-67
2022/01/30 10:54:38;;;;;;;;;;;;;;;-142.75;100.00;78789.38;5031810;28;19909;-67
2022/01/30 10:57:05;;;;;;;;;;;;;;;-142.75;100.00;78814.97;5031960;28;19993;-67
2022/01/30 10:59:30;;;;;;;;;;;;;;;-142.75;100.00;78818.91;5013664;28;20325;-68
2022/01/30 11:02:09;;;;;;;;;;;;;;;-142.75;100.00;78830.75;5030176;28;19984;-68
2022/01/30 11:04:34;;;;;;;;;;;;;;;-142.75;100.00;78876.03;5050503;28;19948;-68
2022/01/30 11:07:02;;;;;;;;;;;;;;;-142.75;100.00;78897.72;5051930;28;19944;-68
2022/01/30 11:09:39;;;;;;;;;;;;;;;-142.75;100.00;78913.47;5051263;28;20364;-68
2022/01/30 11:12:09;;;;;;;;;;;;;;;-142.75;100.00;78919.38;5051351;28;19912;-68
2022/01/30 11:17:07;;;;;;;;;;;;;;;-142.75;100.00;78964.69;5051549;28;19913;-68
2022/01/30 11:19:38;;;;;;;;;;;;;;;-142.75;100.00;78964.69;5034010;28;19916;-68
2022/01/30 11:22:08;;;;;;;;;;;;;;;-142.75;100.00;78976.50;5029362;28;19915;-67
2022/01/30 11:24:36;;;;;;;;;;;;;;;-142.75;100.00;79000.13;5031379;28;20063;-68
2022/01/30 11:27:03;;;;;;;;;;;;;;;-142.75;100.00;79011.94;5013392;28;19960;-68
2022/01/30 11:29:28;;;;;;;;;;;;;;;-142.75;100.00;79033.63;5013331;28;19909;-68
2022/01/30 11:31:54;;;;;;;;;;;;;;;-142.75;100.00;79029.66;5017838;28;19908;-68
2022/01/30 11:34:20;;;;;;;;;;;;;;;-142.75;100.00;79023.75;5049187;28;19931;-68
2022/01/30 11:36:48;;;;;;;;;;;;;;;-142.75;100.00;78915.44;5050972;28;19909;-69
2022/01/30 11:39:14;;;;;;;;;;;;;;;-142.75;100.00;78907.56;5050803;28;19912;-69
2022/01/30 11:41:39;;;;;;;;;;;;;;;-142.75;100.00;78903.63;5050734;28;19919;-69
2022/01/30 11:44:17;;;;;;;;;;;;;;;-142.75;100.00;78933.16;5051062;28;19908;-68
2022/01/30 11:46:42;;;;;;;;;;;;;;;-142.75;100.00;78946.94;5050969;28;19908;-68
2022/01/30 11:49:11;;;;;;;;;;;;;;;-142.75;100.00;78964.69;5050808;28;19909;-69
2022/01/30 11:51:47;;;;;;;;;;;;;;;-142.75;100.00;78966.66;5029182;28;19925;-68
2022/01/30 11:54:45;;;;;;;;;;;;;;;-142.75;100.00;78984.38;5012948;28;20603;-69
2022/01/30 11:57:20;;;;;;;;;;;;;;;-142.75;100.00;79000.13;5007838;28;19915;-69
2022/01/30 11:59:46;;;;;;;;;;;;;;;-142.75;100.00;79000.13;5012771;28;20374;-70
2022/01/30 12:02:20;;;;;;;;;;;;;;;-142.75;100.00;78990.28;5016544;28;19908;-71
2022/01/30 12:04:56;;;;;;;;;;;;;;;-142.75;100.00;78919.38;5050602;28;19909;-70
2022/01/30 12:07:36;;;;;;;;;;;;;;;-142.75;100.00;78814.97;5043277;28;19913;-68
2022/01/30 12:10:20;;;;;;;;;;;;;;;-142.75;100.00;78787.41;5029841;28;19975;-66
2022/01/30 12:12:51;;;;;;;;;;;;;;;-142.75;100.00;78753.94;5029141;28;20278;-67
2022/01/30 12:15:35;;;;;;;;;;;;;;;-142.75;100.00;78641.66;5030373;28;19909;-67
2022/01/30 12:18:00;;;;;;;;;;;;;;;-142.75;100.00;78578.63;5012554;28;20285;-67
2022/01/30 12:20:27;;;;;;;;;;;;;;;-142.75;100.00;78486.06;5034686;28;19996;-67
2022/01/30 12:22:53;;;;;;;;;;;;;;;-142.75;100.00;78427.00;5048308;28;19909;-68
2022/01/30 12:25:20;;;;;;;;;;;;;;;-142.75;100.00;78338.38;5054366;28;19963;-68
2022/01/30 12:27:56;;;;;;;;;;;;;;;-142.75;100.00;78320.66;5054171;28;19913;-68
2022/01/30 12:30:38;;;;;;;;;;;;;;;-142.75;100.00;78299.00;5054260;28;20032;-68
2022/01/30 12:33:22;;;;;;;;;;;;;;;-142.75;100.00;78287.16;5054234;28;19923;-69
2022/01/30 12:35:47;;;;;;;;;;;;;;;-142.75;100.00;78340.34;5054100;28;19994;-68
2022/01/30 12:38:12;;;;;;;;;;;;;;;-142.75;100.00;78352.16;5053969;28;19945;-68
2022/01/30 12:40:37;;;;;;;;;;;;;;;-142.75;100.00;78352.16;5054258;28;19908;-67
2022/01/30 12:43:03;;;;;;;;;;;;;;;-142.75;100.00;78245.81;5054176;28;19915;-68
2022/01/30 12:45:28;;;;;;;;;;;;;;;-142.75;98.98;78287.16;5038292;28;19941;-68
2022/01/30 12:47:59;;;;;;;;;;;;;;;-142.75;96.43;78330.50;5033824;28;19913;-68
2022/01/30 12:50:31;;;;;;;;;;;;;;;-142.75;98.67;78287.16;5016167;28;19999;-68
2022/01/30 12:52:57;;;;;;;;;;;;;;;-142.75;95.08;78297.00;5016359;28;19916;-68
2022/01/30 12:55:23;;;;;;;;;;;;;;;-142.75;92.98;78299.00;5033843;28;19908;-67
2022/01/30 12:57:49;;;;;;;;;;;;;;;-142.75;95.37;78369.88;5033883;28;19913;-67
2022/01/30 13:00:15;;;;;;;;;;;;;;;-142.75;96.60;78308.84;5033665;28;19920;-68
2022/01/30 13:02:55;;;;;;;;;;;;;;;-142.75;95.25;78295.06;5033968;28;19915;-69
2022/01/30 13:05:20;;;;;;;;;;;;;;;-142.75;93.97;78275.34;5050788;23;19921;-67
2022/01/30 13:07:55;;;;;;;;;;;;;;;-142.75;90.00;78259.59;5013814;28;20276;-67
2022/01/30 13:10:21;;;;;;;;;;;;;;;-142.75;85.42;78243.84;5015299;28;19913;-68
2022/01/30 13:12:47;;;;;;;;;;;;;;;-142.75;91.82;78239.91;5015700;28;19966;-68